createdAt,value
2023-03-28T00:01:10.024Z,100.00
2023-03-28T00:03:39.786Z,100.00
2023-03-28T00:06:11.319Z,100.00
2023-03-28T00:08:39.475Z,100.00
2023-03-28T00:11:19.656Z,100.00
2023-03-28T00:13:48.610Z,100.00
2023-03-28T00:16:15.237Z,100.00
2023-03-28T00:18:42.943Z,100.00
2023-03-28T00:21:25.090Z,100.00
2023-03-28T00:23:57.256Z,100.00
2023-03-28T00:26:26.575Z,100.00
2023-03-28T00:28:53.453Z,100.00
2023-03-28T00:31:20.758Z,100.00
2023-03-28T00:33:47.793Z,100.00
2023-03-28T00:36:18.468Z,100.00
2023-03-28T00:38:46.105Z,100.00
2023-03-28T00:41:15.997Z,100.00
2023-03-28T00:43:45.404Z,100.00
2023-03-28T00:46:22.500Z,100.00
2023-03-28T00:48:53.561Z,100.00
2023-03-28T00:51:25.969Z,100.00
2023-03-28T00:53:58.076Z,100.00
2023-03-28T00:56:29.743Z,100.00
2023-03-28T00:58:57.489Z,100.00
2023-03-28T01:01:24.016Z,100.00
2023-03-28T01:04:02.299Z,100.00
2023-03-28T01:06:34.622Z,100.00
2023-03-28T01:09:04.795Z,100.00
2023-03-28T01:11:32.794Z,100.00
2023-03-28T01:14:02.232Z,100.00
2023-03-28T01:16:30.862Z,100.00
2023-03-28T01:19:02.662Z,100.00
2023-03-28T01:21:48.463Z,100.00
2023-03-28T01:24:23.880Z,100.00
2023-03-28T01:27:03.872Z,100.00
2023-03-28T01:29:49.070Z,100.00
2023-03-28T01:32:38.755Z,100.00
2023-03-28T01:35:24.485Z,100.00
2023-03-28T01:38:09.253Z,100.00
2023-03-28T01:41:08.252Z,100.00
2023-03-28T01:43:59.415Z,100.00
2023-03-28T01:46:33.587Z,100.00
2023-03-28T01:49:10.348Z,100.00
2023-03-28T01:52:05.143Z,100.00
2023-03-28T01:55:05.728Z,100.00
2023-03-28T01:58:05.431Z,100.00
2023-03-28T02:00:36.332Z,100.00
2023-03-28T02:03:11.597Z,100.00
2023-03-28T02:05:41.049Z,100.00
2023-03-28T02:08:11.392Z,100.00
2023-03-28T02:10:41.999Z,100.00
2023-03-28T02:13:15.898Z,100.00
2023-03-28T02:15:45.748Z,100.00
2023-03-28T02:18:23.674Z,100.00
2023-03-28T02:20:55.409Z,100.00
2023-03-28T02:23:26.991Z,100.00
2023-03-28T02:25:53.702Z,100.00
2023-03-28T02:28:21.878Z,100.00
2023-03-28T02:30:48.832Z,100.00
2023-03-28T02:33:40.649Z,100.00
2023-03-28T02:36:29.196Z,100.00
2023-03-28T02:39:20.852Z,100.00
2023-03-28T02:42:09.188Z,100.00
2023-03-28T02:45:13.251Z,100.00
2023-03-28T02:48:17.545Z,100.00
2023-03-28T02:51:04.157Z,100.00
2023-03-28T02:53:34.381Z,100.00
2023-03-28T02:56:22.513Z,100.00
2023-03-28T02:58:54.917Z,100.00
2023-03-28T03:01:25.487Z,100.00
2023-03-28T03:03:52.766Z,100.00
2023-03-28T03:06:19.513Z,100.00
2023-03-28T03:08:46.324Z,100.00
2023-03-28T03:11:13.004Z,100.00
2023-03-28T03:13:39.546Z,100.00
2023-03-28T03:16:06.464Z,100.00
2023-03-28T03:18:34.865Z,100.00
2023-03-28T03:21:01.790Z,100.00
2023-03-28T03:23:28.946Z,100.00
2023-03-28T03:25:55.459Z,100.00
2023-03-28T03:28:21.949Z,100.00
2023-03-28T03:30:48.414Z,100.00
2023-03-28T03:33:16.656Z,100.00
2023-03-28T03:35:45.916Z,100.00
2023-03-28T03:38:13.520Z,100.00
2023-03-28T03:40:40.624Z,100.00
2023-03-28T03:43:07.323Z,100.00
2023-03-28T03:45:33.835Z,100.00
2023-03-28T03:48:00.444Z,100.00
2023-03-28T03:50:27.033Z,100.00
2023-03-28T03:52:53.598Z,100.00
2023-03-28T03:55:20.931Z,100.00
2023-03-28T03:57:47.547Z,100.00
2023-03-28T04:00:14.660Z,100.00
2023-03-28T04:02:41.336Z,100.00
2023-03-28T04:05:08.673Z,100.00
2023-03-28T04:07:35.712Z,100.00
2023-03-28T04:10:02.478Z,100.00
2023-03-28T04:12:29.034Z,100.00
2023-03-28T04:14:55.752Z,100.00
2023-03-28T04:17:23.412Z,100.00
2023-03-28T04:19:50.028Z,100.00
2023-03-28T04:22:18.310Z,100.00
2023-03-28T04:24:44.966Z,100.00
2023-03-28T04:27:12.083Z,100.00
2023-03-28T04:29:39.301Z,100.00
2023-03-28T04:32:06.605Z,100.00
2023-03-28T04:34:33.943Z,100.00
2023-03-28T04:37:02.346Z,100.00
2023-03-28T04:39:35.629Z,100.00
2023-03-28T04:42:05.179Z,100.00
2023-03-28T04:44:31.926Z,100.00
2023-03-28T04:46:58.749Z,100.00
2023-03-28T04:49:25.791Z,100.00
2023-03-28T04:51:52.683Z,100.00
2023-03-28T04:54:19.849Z,100.00
2023-03-28T04:56:50.263Z,100.00
2023-03-28T04:59:17.661Z,100.00
2023-03-28T05:01:49.301Z,100.00
2023-03-28T05:04:17.738Z,100.00
2023-03-28T05:06:46.500Z,100.00
2023-03-28T05:09:14.373Z,100.00
2023-03-28T05:11:41.152Z,100.00
2023-03-28T05:14:07.665Z,100.00
2023-03-28T05:16:34.574Z,100.00
2023-03-28T05:19:01.650Z,100.00
2023-03-28T05:21:28.668Z,100.00
2023-03-28T05:23:55.584Z,100.00
2023-03-28T05:26:22.149Z,100.00
2023-03-28T05:28:48.969Z,100.00
2023-03-28T05:31:17.342Z,100.00
2023-03-28T05:33:43.980Z,100.00
2023-03-28T05:36:10.741Z,100.00
2023-03-28T05:38:37.388Z,100.00
2023-03-28T05:41:04.030Z,100.00
2023-03-28T05:43:30.646Z,100.00
2023-03-28T05:45:57.203Z,100.00
2023-03-28T05:48:23.814Z,100.00
2023-03-28T05:50:51.035Z,100.00
2023-03-28T05:53:17.644Z,100.00
2023-03-28T05:55:44.287Z,100.00
2023-03-28T05:58:10.828Z,100.00
2023-03-28T06:00:37.623Z,100.00
2023-03-28T06:03:06.150Z,100.00
2023-03-28T06:05:33.014Z,100.00
2023-03-28T06:07:59.577Z,100.00
2023-03-28T06:10:26.494Z,100.00
2023-03-28T06:12:53.003Z,100.00
2023-03-28T06:15:19.520Z,100.00
2023-03-28T06:17:46.177Z,100.00
2023-03-28T06:20:13.320Z,100.00
2023-03-28T06:22:40.021Z,100.00
2023-03-28T06:25:07.359Z,100.00
2023-03-28T06:27:34.649Z,100.00
2023-03-28T06:30:01.432Z,100.00
2023-03-28T06:32:28.556Z,100.00
2023-03-28T06:34:55.112Z,100.00
2023-03-28T06:37:21.601Z,100.00
2023-03-28T06:39:50.745Z,100.00
2023-03-28T06:42:17.475Z,100.00
2023-03-28T06:44:43.975Z,100.00
2023-03-28T06:47:10.534Z,100.00
2023-03-28T06:49:37.052Z,100.00
2023-03-28T06:52:03.605Z,100.00
2023-03-28T06:54:30.085Z,100.00
2023-03-28T06:56:56.616Z,100.00
2023-03-28T06:59:23.185Z,100.00
2023-03-28T07:01:49.732Z,100.00
2023-03-28T07:04:16.296Z,100.00
2023-03-28T07:06:42.857Z,100.00
2023-03-28T07:09:09.413Z,100.00
2023-03-28T07:11:35.987Z,100.00
2023-03-28T07:14:02.520Z,100.00
2023-03-28T07:16:29.030Z,100.00
2023-03-28T07:18:55.914Z,100.00
2023-03-28T07:21:22.704Z,100.00
2023-03-28T07:23:49.289Z,99.71
2023-03-28T07:26:16.586Z,98.23
2023-03-28T07:28:43.477Z,95.85
2023-03-28T07:31:10.468Z,94.19
2023-03-28T07:33:38.466Z,93.13
2023-03-28T07:36:09.682Z,92.22
2023-03-28T07:38:36.756Z,91.28
2023-03-28T07:41:03.745Z,89.44
2023-03-28T07:43:30.455Z,89.35
2023-03-28T07:46:06.396Z,87.46
2023-03-28T07:48:34.948Z,89.02
2023-03-28T07:51:02.202Z,86.90
2023-03-28T07:53:28.893Z,86.15
2023-03-28T07:55:56.269Z,83.23
2023-03-28T07:58:23.775Z,81.81
2023-03-28T08:00:50.657Z,80.25
2023-03-28T08:03:18.770Z,80.58
2023-03-28T08:05:49.771Z,78.99
2023-03-28T08:08:16.608Z,78.67
2023-03-28T08:10:46.065Z,79.37
2023-03-28T08:13:12.778Z,79.14
2023-03-28T08:15:39.402Z,76.98
2023-03-28T08:18:06.160Z,76.85
2023-03-28T08:20:33.493Z,75.99
2023-03-28T08:22:59.957Z,75.24
2023-03-28T08:25:26.466Z,75.73
2023-03-28T08:27:52.942Z,76.75
2023-03-28T08:30:19.460Z,72.30
2023-03-28T08:32:48.689Z,75.53
2023-03-28T08:35:15.730Z,69.86
2023-03-28T08:37:42.245Z,64.65
2023-03-28T08:40:14.889Z,64.42
2023-03-28T08:43:15.428Z,66.91
2023-03-28T08:45:55.656Z,66.75
2023-03-28T08:48:22.149Z,66.95
2023-03-28T08:50:51.226Z,65.49
2023-03-28T08:53:24.346Z,67.09
2023-03-28T08:55:53.770Z,64.97
2023-03-28T08:58:23.362Z,63.85
2023-03-28T09:00:52.101Z,62.66
2023-03-28T09:03:21.616Z,63.15
2023-03-28T09:06:29.487Z,58.59
2023-03-28T09:09:05.077Z,53.15
2023-03-28T09:11:54.274Z,49.02
2023-03-28T09:14:23.726Z,46.62
2023-03-28T09:17:27.829Z,44.04
2023-03-28T09:20:12.517Z,42.41
2023-03-28T09:22:56.082Z,40.43
2023-03-28T09:25:36.261Z,39.07
2023-03-28T09:28:14.823Z,44.58
2023-03-28T09:30:45.950Z,45.73
2023-03-28T09:33:18.594Z,43.63
2023-03-28T09:35:48.930Z,43.97
2023-03-28T09:38:26.415Z,42.41
2023-03-28T09:40:57.531Z,41.23
2023-03-28T09:43:47.415Z,43.58
2023-03-28T09:46:37.002Z,42.35
2023-03-28T09:49:03.680Z,42.04
2023-03-28T09:51:31.046Z,41.14
2023-03-28T09:53:57.598Z,40.62
2023-03-28T09:56:36.737Z,39.74
2023-03-28T09:59:05.075Z,39.68
2023-03-28T10:01:38.642Z,37.99
2023-03-28T10:04:14.432Z,36.81
2023-03-28T10:06:42.278Z,35.61
2023-03-28T10:09:18.196Z,36.79
2023-03-28T10:11:57.538Z,37.02
2023-03-28T10:14:42.183Z,33.52
2023-03-28T10:17:18.874Z,32.43
2023-03-28T10:19:47.433Z,32.38
2023-03-28T10:22:13.882Z,34.06
2023-03-28T10:24:41.182Z,33.92
2023-03-28T10:27:23.909Z,35.15
2023-03-28T10:29:53.482Z,33.79
2023-03-28T10:32:29.297Z,29.96
2023-03-28T10:35:22.040Z,25.70
2023-03-28T10:37:54.851Z,26.21
2023-03-28T10:40:21.333Z,26.94
2023-03-28T10:42:50.842Z,22.61
2023-03-28T10:45:40.578Z,21.00
2023-03-28T10:48:22.592Z,23.63
2023-03-28T10:50:52.857Z,25.75
2023-03-28T10:53:43.479Z,23.32
2023-03-28T10:56:29.489Z,18.59
2023-03-28T10:59:27.885Z,18.25
2023-03-28T11:02:50.000Z,17.94
2023-03-28T11:05:28.212Z,18.06
2023-03-28T11:08:00.107Z,18.69
2023-03-28T11:11:06.121Z,23.51
2023-03-28T11:13:57.766Z,22.56
2023-03-28T11:17:17.122Z,18.76
2023-03-28T11:19:49.453Z,21.13
2023-03-28T11:22:28.154Z,21.27
2023-03-28T11:25:19.544Z,23.57
2023-03-28T11:28:06.270Z,25.77
2023-03-28T11:30:35.420Z,21.82
2023-03-28T11:33:16.705Z,25.45
2023-03-28T11:35:54.624Z,29.44
2023-03-28T11:38:56.629Z,27.89
2023-03-28T11:41:30.035Z,25.29
2023-03-28T11:44:08.451Z,22.42
2023-03-28T11:46:40.753Z,21.45
2023-03-28T11:49:22.592Z,20.82
2023-03-28T11:52:04.326Z,18.13
2023-03-28T11:54:37.547Z,18.00
2023-03-28T11:57:35.076Z,22.27
2023-03-28T12:00:42.534Z,25.84
2023-03-28T12:03:29.020Z,24.91
2023-03-28T12:06:05.544Z,25.23
2023-03-28T12:08:47.586Z,22.01
2023-03-28T12:11:36.847Z,19.45
2023-03-28T12:14:12.630Z,17.84
2023-03-28T12:16:46.779Z,17.57
2023-03-28T12:19:18.421Z,18.75
2023-03-28T12:22:00.740Z,17.18
2023-03-28T12:24:36.980Z,19.87
2023-03-28T12:27:14.625Z,22.56
2023-03-28T12:29:59.383Z,23.39
2023-03-28T12:32:39.450Z,21.11
2023-03-28T12:35:14.551Z,19.55
2023-03-28T12:37:46.739Z,19.30
2023-03-28T12:40:13.544Z,19.10
2023-03-28T12:42:43.311Z,20.87
2023-03-28T12:45:20.123Z,24.66
2023-03-28T12:47:51.616Z,24.83
2023-03-28T12:50:41.267Z,21.98
2023-03-28T12:53:11.678Z,19.41
2023-03-28T12:55:46.502Z,18.06
2023-03-28T12:58:33.435Z,18.78
2023-03-28T13:01:09.230Z,20.05
2023-03-28T13:04:02.739Z,21.35
2023-03-28T13:06:47.790Z,19.54
2023-03-28T13:09:41.728Z,17.62
2023-03-28T13:12:46.948Z,17.93
2023-03-28T13:15:13.406Z,18.77
2023-03-28T13:17:47.846Z,17.76
2023-03-28T13:20:17.584Z,17.05
2023-03-28T13:23:04.645Z,17.90
2023-03-28T13:25:35.588Z,16.64
2023-03-28T13:28:11.359Z,15.94
2023-03-28T13:30:41.394Z,17.32
2023-03-28T13:33:23.136Z,15.80
2023-03-28T13:35:58.911Z,16.52
2023-03-28T13:38:28.143Z,18.83
2023-03-28T13:41:09.533Z,17.52
2023-03-28T13:43:47.360Z,18.56
2023-03-28T13:46:18.785Z,17.21
2023-03-28T13:49:01.229Z,18.33
2023-03-28T13:51:32.757Z,19.48
2023-03-28T13:53:59.467Z,20.92
2023-03-28T13:56:30.661Z,22.19
2023-03-28T13:58:59.066Z,24.58
2023-03-28T14:01:33.399Z,25.98
2023-03-28T14:03:59.996Z,27.30
2023-03-28T14:06:29.645Z,28.59
2023-03-28T14:09:01.078Z,29.54
2023-03-28T14:11:37.573Z,31.35
2023-03-28T14:14:11.747Z,31.43
2023-03-28T14:16:39.548Z,32.30
2023-03-28T14:19:07.586Z,32.58
2023-03-28T14:21:34.784Z,33.62
2023-03-28T14:24:07.059Z,33.36
2023-03-28T14:26:37.114Z,33.71
2023-03-28T14:29:05.632Z,34.26
2023-03-28T14:31:38.510Z,34.82
2023-03-28T14:34:25.437Z,34.54
2023-03-28T14:37:02.165Z,33.95
2023-03-28T14:39:31.372Z,35.21
2023-03-28T14:42:02.180Z,34.92
2023-03-28T14:44:30.277Z,35.48
2023-03-28T14:46:59.295Z,35.21
2023-03-28T14:49:27.128Z,37.01
2023-03-28T14:51:57.412Z,37.01
2023-03-28T14:54:28.639Z,37.15
2023-03-28T14:56:57.320Z,37.10
2023-03-28T14:59:32.305Z,37.49
2023-03-28T15:02:01.808Z,37.57
2023-03-28T15:04:30.167Z,37.34
2023-03-28T15:06:58.096Z,37.19
2023-03-28T15:09:28.993Z,37.54
2023-03-28T15:11:57.385Z,38.20
2023-03-28T15:14:30.828Z,38.26
2023-03-28T15:16:57.967Z,38.38
2023-03-28T15:19:35.477Z,37.73
2023-03-28T15:22:21.515Z,37.80
2023-03-28T15:24:48.181Z,37.95
2023-03-28T15:27:25.197Z,38.17
2023-03-28T15:29:51.854Z,38.91
2023-03-28T15:32:20.298Z,39.25
2023-03-28T15:34:55.185Z,39.22
2023-03-28T15:37:24.722Z,38.77
2023-03-28T15:39:52.659Z,39.41
2023-03-28T15:42:19.171Z,39.66
2023-03-28T15:45:11.936Z,40.24
2023-03-28T15:47:38.769Z,40.10
2023-03-28T15:50:08.174Z,39.52
2023-03-28T15:52:35.270Z,40.11
2023-03-28T15:55:03.248Z,40.53
2023-03-28T15:57:30.823Z,40.36
2023-03-28T15:59:58.705Z,40.68
2023-03-28T16:02:25.491Z,40.89
2023-03-28T16:05:06.942Z,41.18
2023-03-28T16:07:34.672Z,41.26
2023-03-28T16:10:01.242Z,41.11
2023-03-28T16:12:28.142Z,41.67
2023-03-28T16:14:55.342Z,41.71
2023-03-28T16:17:26.467Z,41.72
2023-03-28T16:19:53.071Z,42.23
2023-03-28T16:22:21.084Z,42.20
2023-03-28T16:24:49.591Z,42.72
2023-03-28T16:27:16.732Z,43.05
2023-03-28T16:29:43.712Z,42.89
2023-03-28T16:32:12.758Z,42.80
2023-03-28T16:34:40.184Z,43.70
2023-03-28T16:37:08.931Z,43.54
2023-03-28T16:39:37.501Z,43.95
2023-03-28T16:42:05.393Z,44.52
2023-03-28T16:44:32.497Z,45.04
2023-03-28T16:47:00.178Z,45.17
2023-03-28T16:49:26.754Z,44.91
2023-03-28T16:51:54.816Z,45.26
2023-03-28T16:54:24.626Z,45.37
2023-03-28T16:56:51.224Z,44.89
2023-03-28T16:59:17.833Z,45.77
2023-03-28T17:01:46.348Z,45.89
2023-03-28T17:04:13.282Z,45.96
2023-03-28T17:06:39.930Z,46.46
2023-03-28T17:09:06.753Z,46.37
2023-03-28T17:11:33.618Z,46.74
2023-03-28T17:14:00.621Z,46.72
2023-03-28T17:16:27.469Z,46.80
2023-03-28T17:18:54.068Z,46.73
2023-03-28T17:21:20.598Z,48.35
2023-03-28T17:23:48.700Z,48.17
2023-03-28T17:26:16.264Z,47.90
2023-03-28T17:28:43.522Z,49.96
2023-03-28T17:31:17.055Z,50.35
2023-03-28T17:33:44.872Z,50.76
2023-03-28T17:36:26.294Z,50.84
2023-03-28T17:38:57.705Z,51.26
2023-03-28T17:41:25.550Z,52.39
2023-03-28T17:43:53.110Z,53.46
2023-03-28T17:46:19.833Z,53.58
2023-03-28T17:48:46.571Z,56.75
2023-03-28T17:51:13.795Z,56.37
2023-03-28T17:53:41.733Z,55.81
2023-03-28T17:56:09.771Z,56.20
2023-03-28T17:58:37.615Z,56.47
2023-03-28T18:01:08.457Z,55.86
2023-03-28T18:03:35.304Z,57.23
2023-03-28T18:06:02.359Z,57.63
2023-03-28T18:08:30.310Z,58.82
2023-03-28T18:11:10.854Z,62.05
2023-03-28T18:13:38.347Z,60.97
2023-03-28T18:16:10.467Z,61.88
2023-03-28T18:18:37.597Z,61.44
2023-03-28T18:21:04.334Z,59.87
2023-03-28T18:23:31.882Z,60.93
2023-03-28T18:25:58.622Z,60.58
2023-03-28T18:28:25.532Z,62.46
2023-03-28T18:30:53.122Z,64.16
2023-03-28T18:33:22.068Z,65.02
2023-03-28T18:35:49.234Z,64.12
2023-03-28T18:38:15.846Z,64.84
2023-03-28T18:40:42.955Z,65.75
2023-03-28T18:43:09.858Z,68.44
2023-03-28T18:45:36.810Z,68.57
2023-03-28T18:48:04.050Z,67.38
2023-03-28T18:50:31.339Z,70.09
2023-03-28T18:52:58.099Z,68.04
2023-03-28T18:55:24.866Z,69.12
2023-03-28T18:57:52.740Z,68.69
2023-03-28T19:00:19.918Z,68.90
2023-03-28T19:02:47.926Z,69.41
2023-03-28T19:05:16.585Z,68.72
2023-03-28T19:07:44.718Z,68.31
2023-03-28T19:10:13.382Z,70.57
2023-03-28T19:12:41.098Z,70.31
2023-03-28T19:15:08.821Z,72.62
2023-03-28T19:17:36.473Z,73.87
2023-03-28T19:20:07.796Z,76.48
2023-03-28T19:22:35.172Z,76.21
2023-03-28T19:25:01.825Z,78.14
2023-03-28T19:27:28.178Z,76.40
2023-03-28T19:29:54.570Z,79.53
2023-03-28T19:32:20.933Z,78.21
2023-03-28T19:34:47.329Z,76.92
2023-03-28T19:37:14.002Z,79.87
2023-03-28T19:39:40.382Z,77.62
2023-03-28T19:42:06.757Z,76.07
2023-03-28T19:44:33.242Z,76.39
2023-03-28T19:46:59.671Z,78.18
2023-03-28T19:49:26.176Z,78.72
2023-03-28T19:51:55.550Z,78.06
2023-03-28T19:54:22.048Z,77.19
2023-03-28T19:56:48.690Z,82.76
2023-03-28T19:59:15.133Z,84.45
2023-03-28T20:01:41.586Z,83.58
2023-03-28T20:04:08.161Z,85.62
2023-03-28T20:06:34.610Z,83.00
2023-03-28T20:09:01.129Z,87.89
2023-03-28T20:11:27.836Z,85.51
2023-03-28T20:13:54.209Z,84.26
2023-03-28T20:16:20.813Z,84.94
2023-03-28T20:18:48.285Z,86.92
2023-03-28T20:21:14.803Z,90.14
2023-03-28T20:23:41.513Z,87.80
2023-03-28T20:26:12.179Z,89.51
2023-03-28T20:28:39.986Z,92.64
2023-03-28T20:31:06.406Z,89.95
2023-03-28T20:33:32.804Z,90.40
2023-03-28T20:35:59.239Z,87.48
2023-03-28T20:38:26.106Z,89.77
2023-03-28T20:40:52.584Z,89.90
2023-03-28T20:43:22.066Z,89.75
2023-03-28T20:45:53.528Z,86.28
2023-03-28T20:48:21.899Z,87.85
2023-03-28T20:50:48.705Z,89.39
2023-03-28T20:53:15.699Z,89.00
2023-03-28T20:55:43.287Z,87.92
2023-03-28T20:58:09.643Z,87.13
2023-03-28T21:00:36.070Z,86.72
2023-03-28T21:03:03.710Z,89.75
2023-03-28T21:05:30.344Z,92.90
2023-03-28T21:07:58.250Z,92.05
2023-03-28T21:10:24.612Z,91.20
2023-03-28T21:12:51.610Z,89.32
2023-03-28T21:15:18.169Z,87.42
2023-03-28T21:17:47.677Z,91.59
2023-03-28T21:20:14.099Z,88.91
2023-03-28T21:22:40.540Z,89.78
2023-03-28T21:25:07.608Z,92.33
2023-03-28T21:27:34.734Z,92.20
2023-03-28T21:30:04.210Z,89.64
2023-03-28T21:32:33.071Z,90.71
2023-03-28T21:34:59.960Z,90.06
2023-03-28T21:37:26.343Z,92.95
2023-03-28T21:39:52.862Z,92.19
2023-03-28T21:42:19.279Z,90.84
2023-03-28T21:44:45.963Z,90.48
2023-03-28T21:47:13.134Z,93.78
2023-03-28T21:49:39.520Z,90.46
2023-03-28T21:52:06.001Z,90.33
2023-03-28T21:54:32.454Z,91.25
2023-03-28T21:56:59.164Z,90.93
2023-03-28T21:59:26.324Z,93.25
2023-03-28T22:01:52.776Z,93.27
2023-03-28T22:04:19.233Z,94.41
2023-03-28T22:06:45.610Z,94.26
2023-03-28T22:09:12.205Z,96.96
2023-03-28T22:11:39.400Z,93.83
2023-03-28T22:14:06.216Z,95.15
2023-03-28T22:16:35.011Z,92.94
2023-03-28T22:19:01.658Z,91.43
2023-03-28T22:21:30.209Z,89.73
2023-03-28T22:23:57.167Z,90.91
2023-03-28T22:26:27.203Z,91.06
2023-03-28T22:28:54.583Z,90.71
2023-03-28T22:31:21.612Z,90.14
2023-03-28T22:33:48.073Z,88.43
2023-03-28T22:36:14.611Z,91.32
2023-03-28T22:38:41.153Z,92.40
2023-03-28T22:41:07.780Z,92.00
2023-03-28T22:43:34.631Z,93.25
2023-03-28T22:46:01.065Z,89.84
2023-03-28T22:48:29.995Z,92.66
2023-03-28T22:50:57.191Z,90.56
2023-03-28T22:53:25.988Z,91.72
2023-03-28T22:55:52.366Z,93.02
2023-03-28T22:58:19.183Z,91.88
2023-03-28T23:00:46.423Z,91.85
2023-03-28T23:03:13.162Z,92.17
2023-03-28T23:05:39.662Z,89.57
2023-03-28T23:08:06.359Z,90.77
2023-03-28T23:10:33.333Z,93.83
2023-03-28T23:12:59.999Z,93.15
2023-03-28T23:15:27.118Z,95.84
2023-03-28T23:17:53.646Z,93.03
2023-03-28T23:20:20.159Z,93.81
2023-03-28T23:22:47.476Z,89.70
2023-03-28T23:25:15.177Z,93.53
2023-03-28T23:27:42.087Z,92.83
2023-03-28T23:30:10.168Z,93.45
2023-03-28T23:32:36.780Z,94.13
2023-03-28T23:35:03.729Z,90.06
2023-03-28T23:37:30.283Z,92.63
2023-03-28T23:39:57.425Z,96.36
2023-03-28T23:42:24.795Z,95.79
2023-03-28T23:44:51.800Z,95.71
2023-03-28T23:47:20.371Z,91.85
2023-03-28T23:49:47.117Z,92.89
2023-03-28T23:52:13.510Z,93.53
2023-03-28T23:54:40.000Z,95.16
2023-03-28T23:57:06.863Z,92.27
2023-03-28T23:59:33.357Z,94.52
